Time;durP1;ratioP1;P1;durP2;ratioP2;P2;SDS_P1;SDS_P2;PMS_P1;PMS_P2;Temp;Humidity;BMP_temperature;BMP_pressure;BME280_temperature;BME280_humidity;BME280_pressure;Samples;Min_cycle;Max_cycle;Signal;HPM_P1;HPM_P2
2021/01/14 00:02:07;;;;;;;21.70;9.10;;;;;;;0.18;71.87;99644.38;121726;1141;104458;-72
2021/01/14 00:04:36;;;;;;;20.40;9.03;;;;;;;0.17;71.65;99646.09;121735;1141;104436;-71
2021/01/14 00:07:05;;;;;;;22.43;9.47;;;;;;;0.15;71.77;99644.19;121719;1141;104761;-72
2021/01/14 00:09:33;;;;;;;20.53;9.47;;;;;;;0.13;72.00;99646.67;121735;1140;104374;-71
2021/01/14 00:12:03;;;;;;;21.60;9.17;;;;;;;0.11;72.11;99649.94;121681;1141;104464;-71
2021/01/14 00:14:32;;;;;;;19.23;8.57;;;;;;;0.07;72.03;99637.66;121734;1141;104352;-71
2021/01/14 00:17:01;;;;;;;21.50;9.33;;;;;;;0.03;71.65;99631.39;121678;1140;104335;-71
2021/01/14 00:19:29;;;;;;;22.53;9.50;;;;;;;0.02;71.57;99639.03;121637;1141;104401;-72
2021/01/14 00:21:58;;;;;;;23.97;9.67;;;;;;;-0.02;71.67;99638.88;121619;1141;104936;-71
2021/01/14 00:24:30;;;;;;;19.40;8.43;;;;;;;-0.03;72.06;99638.78;121563;1141;104466;-72
2021/01/14 00:26:59;;;;;;;21.60;9.47;;;;;;;-0.06;71.95;99642.04;121615;1140;104463;-71
2021/01/14 00:29:30;;;;;;;23.57;9.33;;;;;;;-0.07;72.08;99636.78;121703;1141;104435;-71
2021/01/14 00:32:02;;;;;;;24.40;9.70;;;;;;;-0.08;72.21;99647.88;121704;1140;104457;-71
2021/01/14 00:34:32;;;;;;;22.20;9.45;;;;;;;-0.10;71.60;99645.20;121749;1140;104339;-72
2021/01/14 00:39:40;;;;;;;23.20;9.73;;;;;;;-0.14;72.06;99645.83;121711;1140;104348;-73
2021/01/14 00:42:16;;;;;;;22.47;9.77;;;;;;;-0.16;72.32;99643.93;121699;1141;104345;-73
2021/01/14 00:44:45;;;;;;;22.57;9.40;;;;;;;-0.19;72.28;99637.79;121709;1141;104339;-74
2021/01/14 00:47:14;;;;;;;24.77;11.40;;;;;;;-0.20;71.87;99641.15;121692;1141;104509;-73
2021/01/14 00:49:43;;;;;;;25.70;11.50;;;;;;;-0.19;72.45;99636.88;121692;1141;104417;-73
2021/01/14 00:52:13;;;;;;;23.50;11.07;;;;;;;-0.22;71.73;99635.02;121685;1141;104471;-73
2021/01/14 00:54:42;;;;;;;23.93;11.10;;;;;;;-0.25;71.84;99633.91;121730;1141;104521;-73
2021/01/14 00:57:12;;;;;;;24.43;11.47;;;;;;;-0.27;72.43;99638.08;121733;1141;104770;-73
2021/01/14 00:59:44;;;;;;;26.60;11.87;;;;;;;-0.30;72.47;99624.98;121719;1141;104342;-73
2021/01/14 01:02:14;;;;;;;26.23;11.53;;;;;;;-0.31;72.53;99624.11;121715;1141;104342;-73
2021/01/14 01:04:43;;;;;;;31.93;13.07;;;;;;;-0.34;72.38;99630.72;121652;1140;104346;-73
2021/01/14 01:07:12;;;;;;;29.63;13.00;;;;;;;-0.37;71.94;99624.59;121639;1141;104337;-73
2021/01/14 01:09:41;;;;;;;28.85;12.50;;;;;;;-0.40;72.16;99626.97;121694;1141;104335;-73
2021/01/14 01:12:12;;;;;;;29.07;12.70;;;;;;;-0.39;72.43;99631.34;121719;1141;104380;-73
2021/01/14 01:14:41;;;;;;;31.37;13.70;;;;;;;-0.41;72.18;99627.75;121735;1141;104339;-74
2021/01/14 01:17:11;;;;;;;29.60;13.17;;;;;;;-0.41;71.92;99638.06;121781;1141;104838;-74
2021/01/14 01:19:40;;;;;;;29.30;13.57;;;;;;;-0.43;72.43;99631.04;121704;1140;104487;-72
2021/01/14 01:22:09;;;;;;;28.83;14.53;;;;;;;-0.41;72.51;99634.59;121719;1140;104335;-72
2021/01/14 01:24:37;;;;;;;30.57;14.70;;;;;;;-0.41;72.56;99630.33;121723;1141;104469;-72
2021/01/14 01:27:06;;;;;;;29.57;13.37;;;;;;;-0.40;71.92;99636.40;121709;1141;104531;-72
2021/01/14 01:29:35;;;;;;;30.20;14.10;;;;;;;-0.44;72.61;99632.70;121706;1141;104400;-72
2021/01/14 01:32:05;;;;;;;30.20;13.57;;;;;;;-0.45;72.35;99630.94;121621;1141;104362;-71
2021/01/14 01:34:34;;;;;;;29.00;13.70;;;;;;;-0.43;72.42;99628.46;121720;1141;104338;-72
2021/01/14 01:37:03;;;;;;;31.20;14.50;;;;;;;-0.43;72.25;99631.92;121717;1141;104499;-72
2021/01/14 01:39:32;;;;;;;32.20;15.00;;;;;;;-0.44;72.35;99624.97;121660;1141;104393;-72
2021/01/14 01:42:01;;;;;;;30.93;14.07;;;;;;;-0.41;72.82;99629.44;121717;1141;104476;-72
2021/01/14 01:44:30;;;;;;;34.50;16.03;;;;;;;-0.45;72.24;99630.02;121578;1141;104400;-72
2021/01/14 01:47:06;;;;;;;30.73;14.63;;;;;;;-0.46;72.88;99629.14;121722;1141;104404;-72
2021/01/14 01:49:37;;;;;;;33.70;14.90;;;;;;;-0.49;72.31;99634.09;121721;1141;104333;-74
2021/01/14 01:52:08;;;;;;;33.20;14.93;;;;;;;-0.49;72.39;99633.22;121724;1141;104373;-74
2021/01/14 01:54:37;;;;;;;32.20;14.83;;;;;;;-0.52;72.90;99633.89;121741;1141;104337;-74
2021/01/14 01:57:07;;;;;;;30.27;13.97;;;;;;;-0.50;72.15;99637.45;121715;1140;104365;-71
2021/01/14 01:59:36;;;;;;;33.80;13.70;;;;;;;-0.52;72.70;99639.05;121714;1141;104361;-71
2021/01/14 02:02:23;;;;;;;30.33;14.60;;;;;;;-0.56;72.18;99637.97;121727;1141;104343;-71
2021/01/14 02:04:54;;;;;;;27.67;13.13;;;;;;;-0.55;72.47;99638.84;121735;1141;104404;-71
2021/01/14 02:07:34;;;;;;;48.73;15.60;;;;;;;-0.54;72.17;99635.48;121713;1141;104684;-71
2021/01/14 02:10:08;;;;;;;59.73;15.87;;;;;;;-0.52;72.37;99635.59;121714;1140;104457;-71
2021/01/14 02:12:48;;;;;;;38.93;14.17;;;;;;;-0.50;72.53;99639.16;121739;1141;104358;-71
2021/01/14 02:15:18;;;;;;;35.63;12.27;;;;;;;-0.49;72.29;99641.83;121736;1141;104398;-72
2021/01/14 02:17:47;;;;;;;26.10;12.30;;;;;;;-0.47;72.88;99640.23;121689;1141;104399;-72
2021/01/14 02:20:16;;;;;;;28.90;12.17;;;;;;;-0.46;73.22;99641.15;121747;1141;104364;-72
2021/01/14 02:22:51;;;;;;;23.40;10.60;;;;;;;-0.43;72.97;99644.81;121704;1141;104342;-72
2021/01/14 02:25:27;;;;;;;28.00;11.93;;;;;;;-0.43;72.26;99649.97;121716;1140;104442;-72
2021/01/14 02:27:59;;;;;;;23.70;10.15;;;;;;;-0.43;72.52;99646.50;121712;1140;104341;-72
2021/01/14 02:30:29;;;;;;;23.97;10.80;;;;;;;-0.42;72.48;99645.69;121709;1141;104562;-72
2021/01/14 02:32:58;;;;;;;25.27;11.53;;;;;;;-0.42;72.34;99646.61;121708;1141;104404;-72
2021/01/14 02:35:27;;;;;;;23.63;10.57;;;;;;;-0.43;72.64;99647.39;121622;1140;104438;-73
2021/01/14 02:37:56;;;;;;;21.47;10.03;;;;;;;-0.43;72.15;99643.93;121560;1141;104351;-72
2021/01/14 02:40:25;;;;;;;23.80;9.63;;;;;;;-0.45;72.23;99641.25;121688;1141;104563;-72
2021/01/14 02:42:54;;;;;;;24.63;10.83;;;;;;;-0.46;72.34;99643.73;121700;1141;104348;-72
2021/01/14 02:45:24;;;;;;;22.23;10.10;;;;;;;-0.51;72.83;99643.42;121674;1141;104348;-72
2021/01/14 02:47:54;;;;;;;22.70;10.27;;;;;;;-0.51;72.31;99639.94;121729;1141;104339;-72
2021/01/14 02:50:24;;;;;;;23.10;9.93;;;;;;;-0.53;72.20;99642.44;121737;1141;104466;-72
2021/01/14 02:52:58;;;;;;;22.03;10.23;;;;;;;-0.53;72.12;99637.29;121740;1141;104442;-72
2021/01/14 02:55:29;;;;;;;22.93;9.93;;;;;;;-0.53;72.27;99632.13;121694;1141;104410;-72
2021/01/14 02:57:59;;;;;;;20.83;9.57;;;;;;;-0.51;72.60;99633.11;121724;1141;104338;-72
2021/01/14 03:00:28;;;;;;;23.13;9.57;;;;;;;-0.51;72.25;99627.05;121707;1140;104401;-72
2021/01/14 03:02:57;;;;;;;22.47;9.83;;;;;;;-0.52;72.04;99615.86;121758;1141;104338;-72
2021/01/14 03:05:26;;;;;;;25.93;10.07;;;;;;;-0.53;72.15;99620.91;121738;1141;104372;-72
2021/01/14 03:07:55;;;;;;;22.30;9.77;;;;;;;-0.55;72.63;99618.23;121456;1141;104413;-72
2021/01/14 03:10:24;;;;;;;23.00;9.65;;;;;;;-0.56;72.37;99622.50;121748;1140;104329;-72
2021/01/14 03:12:55;;;;;;;21.23;9.57;;;;;;;-0.58;72.32;99628.34;121711;1140;104439;-72
2021/01/14 03:15:25;;;;;;;21.47;8.90;;;;;;;-0.62;72.83;99626.38;121706;1141;104345;-72
2021/01/14 03:17:54;;;;;;;20.87;9.60;;;;;;;-0.64;72.03;99622.78;121707;1140;104505;-72
2021/01/14 03:20:23;;;;;;;21.07;9.10;;;;;;;-0.65;72.22;99621.02;121673;1140;104466;-71
2021/01/14 03:22:52;;;;;;;19.27;7.93;;;;;;;-0.66;72.83;99622.67;121712;1141;104337;-72
2021/01/14 03:25:21;;;;;;;20.83;9.40;;;;;;;-0.67;72.30;99625.16;121707;1141;104401;-72
2021/01/14 03:27:50;;;;;;;20.90;8.83;;;;;;;-0.70;71.95;99628.44;121706;1141;104376;-72
2021/01/14 03:30:20;;;;;;;21.37;9.53;;;;;;;-0.69;72.68;99629.32;121720;1141;104335;-72
2021/01/14 03:32:49;;;;;;;21.75;8.95;;;;;;;-0.69;72.07;99627.63;121700;1140;104336;-72
2021/01/14 03:35:18;;;;;;;18.80;8.97;;;;;;;-0.69;72.30;99637.94;121707;1141;104352;-72
2021/01/14 03:37:49;;;;;;;20.70;9.50;;;;;;;-0.70;72.28;99628.44;121700;1141;104368;-74
2021/01/14 03:40:18;;;;;;;20.57;8.90;;;;;;;-0.70;72.18;99627.52;122203;1139;104456;-73
2021/01/14 03:42:47;;;;;;;21.83;9.67;;;;;;;-0.69;72.67;99639.62;121738;1141;104874;-73
2021/01/14 03:45:18;;;;;;;20.37;9.17;;;;;;;-0.71;71.97;99646.38;121694;1140;104371;-75
2021/01/14 03:47:47;;;;;;;20.93;9.20;;;;;;;-0.71;71.92;99644.67;121762;1141;104336;-73
2021/01/14 03:50:17;;;;;;;23.57;9.87;;;;;;;-0.68;72.42;99641.42;121714;1141;104338;-75
2021/01/14 03:52:47;;;;;;;28.30;10.40;;;;;;;-0.68;72.34;99639.73;121474;1141;103382;-72
2021/01/14 03:55:18;;;;;;;20.27;9.03;;;;;;;-0.70;72.12;99638.75;121450;1141;104489;-74
2021/01/14 03:57:48;;;;;;;20.93;9.03;;;;;;;-0.70;72.24;99638.75;121709;1141;104370;-74
2021/01/14 04:00:18;;;;;;;24.50;9.30;;;;;;;-0.70;72.77;99637.83;121727;1141;104429;-71
2021/01/14 04:02:56;;;;;;;20.10;8.93;;;;;;;-0.74;71.95;99644.47;121704;1140;104343;-74
2021/01/14 04:05:26;;;;;;;23.07;9.77;;;;;;;-0.81;72.65;99642.27;121741;1141;104812;-73
2021/01/14 04:07:55;;;;;;;21.33;8.80;;;;;;;-0.86;72.59;99641.08;121558;1141;104338;-73
2021/01/14 04:10:24;;;;;;;22.30;9.03;;;;;;;-0.86;71.90;99644.53;121572;1141;104473;-72
2021/01/14 04:12:54;;;;;;;21.13;8.50;;;;;;;-0.86;72.36;99633.34;121708;1141;104452;-73
2021/01/14 04:15:23;;;;;;;20.23;9.17;;;;;;;-0.86;71.69;99641.08;121697;1141;104343;-72
2021/01/14 04:17:52;;;;;;;20.53;9.13;;;;;;;-0.87;72.50;99640.20;121705;1140;104828;-72
2021/01/14 04:20:21;;;;;;;21.33;8.43;;;;;;;-0.89;71.89;99639.17;121731;1141;104330;-73
2021/01/14 04:22:52;;;;;;;20.25;8.85;;;;;;;-0.92;72.11;99631.24;121670;1140;104339;-72
2021/01/14 04:25:28;;;;;;;19.63;8.80;;;;;;;-0.92;72.24;99628.67;121709;1140;104341;-72
2021/01/14 04:27:58;;;;;;;21.03;9.63;;;;;;;-0.92;72.39;99626.09;121732;1141;104356;-71
2021/01/14 04:30:28;;;;;;;21.80;8.50;;;;;;;-0.94;72.30;99628.56;121755;1141;105893;-71
2021/01/14 04:33:09;;;;;;;21.53;10.27;;;;;;;-0.95;72.19;99623.31;121714;1141;104654;-71
2021/01/14 04:35:46;;;;;;;21.83;9.90;;;;;;;-0.96;72.31;99614.70;121708;1141;104372;-72
2021/01/14 04:38:15;;;;;;;22.67;9.30;;;;;;;-0.96;72.95;99619.85;121711;1140;104340;-72
2021/01/14 04:40:45;;;;;;;19.73;8.57;;;;;;;-0.95;72.29;99625.89;121701;1140;104335;-73
2021/01/14 04:43:15;;;;;;;17.97;8.30;;;;;;;-0.98;72.16;99623.10;121636;1140;104607;-72
2021/01/14 04:45:46;;;;;;;17.70;7.83;;;;;;;-0.98;71.90;99625.67;121673;1141;104509;-72
2021/01/14 04:48:18;;;;;;;20.80;8.20;;;;;;;-0.97;72.31;99630.05;121603;1141;104339;-74
2021/01/14 04:50:48;;;;;;;19.13;7.93;;;;;;;-0.98;72.05;99626.59;121689;1140;104340;-71
2021/01/14 04:53:20;;;;;;;19.43;7.80;;;;;;;-0.98;72.89;99620.53;121555;1141;104339;-72
2021/01/14 04:55:49;;;;;;;20.67;8.20;;;;;;;-0.97;71.67;99624.90;121626;1140;104344;-72
2021/01/14 04:58:20;;;;;;;20.20;8.40;;;;;;;-0.98;71.80;99623.10;121601;1141;104339;-74
2021/01/14 05:00:51;;;;;;;19.37;7.90;;;;;;;-0.99;72.13;99622.22;121557;1141;104439;-75
2021/01/14 05:03:25;;;;;;;21.90;7.97;;;;;;;-0.98;71.76;99621.45;121648;1141;104404;-72
2021/01/14 05:05:55;;;;;;;16.73;8.20;;;;;;;-0.99;72.25;99629.06;121564;1141;104332;-72
2021/01/14 05:08:29;;;;;;;18.77;8.20;;;;;;;-1.00;72.70;99632.42;121606;1140;104380;-72
2021/01/14 05:10:57;;;;;;;;;;;;;;;-1.01;71.62;99628.96;121722;1141;104569;-72
2021/01/14 05:13:30;;;;;;;20.23;8.83;;;;;;;-1.04;71.69;99623.61;121659;1141;104789;-72
2021/01/14 05:16:00;;;;;;;18.37;7.87;;;;;;;-1.07;72.21;99619.94;121748;1141;104466;-72
2021/01/14 05:18:29;;;;;;;19.83;8.97;;;;;;;-1.06;72.27;99622.62;121738;1140;104457;-71
2021/01/14 05:20:59;;;;;;;21.00;8.53;;;;;;;-1.06;72.61;99621.70;121700;1140;104330;-72
2021/01/14 05:23:31;;;;;;;18.90;8.37;;;;;;;-1.06;72.36;99613.98;121694;1140;104470;-72
2021/01/14 05:26:01;;;;;;;18.50;8.20;;;;;;;-1.09;71.93;99612.99;121662;1141;104394;-72
2021/01/14 05:28:32;;;;;;;22.53;9.37;;;;;;;-1.08;72.78;99616.45;121620;1141;104377;-74
2021/01/14 05:31:16;;;;;;;21.73;8.77;;;;;;;-1.09;72.88;99618.14;121572;1141;104343;-72
2021/01/14 05:33:57;;;;;;;20.77;9.20;;;;;;;-1.12;72.79;99617.94;121701;1140;104370;-72
2021/01/14 05:36:26;;;;;;;21.63;9.07;;;;;;;-1.15;72.78;99611.70;121738;1141;104596;-72
2021/01/14 05:38:58;;;;;;;21.70;8.97;;;;;;;-1.14;72.25;99616.03;121604;1140;104451;-73
2021/01/14 05:41:30;;;;;;;23.87;9.50;;;;;;;-1.18;72.60;99617.52;121670;1140;104384;-74
2021/01/14 05:44:02;;;;;;;22.37;10.57;;;;;;;-1.15;72.37;99611.70;121698;1139;104347;-72
2021/01/14 05:46:33;;;;;;;21.60;8.93;;;;;;;-1.15;73.00;99604.86;121636;1141;104331;-72
2021/01/14 05:49:08;;;;;;;21.97;10.00;;;;;;;-1.13;73.09;99610.98;121644;1140;104339;-74
2021/01/14 05:51:38;;;;;;;22.30;9.83;;;;;;;-1.12;72.62;99612.78;121529;1141;104359;-74
2021/01/14 05:54:09;;;;;;;21.70;9.80;;;;;;;-1.10;72.78;99606.05;121526;1141;104348;-72
2021/01/14 05:56:41;;;;;;;23.27;10.70;;;;;;;-1.07;72.99;99609.64;121469;1141;104345;-74
2021/01/14 05:59:12;;;;;;;22.03;9.27;;;;;;;-1.07;72.53;99609.64;121428;1141;104378;-76
2021/01/14 06:01:54;;;;;;;21.17;9.80;;;;;;;-1.06;72.38;99616.55;121352;1140;104439;-73
2021/01/14 06:04:25;;;;;;;23.10;10.57;;;;;;;-1.05;72.45;99620.92;121433;1141;104364;-74
2021/01/14 06:06:57;;;;;;;22.47;10.03;;;;;;;-1.04;71.83;99622.69;121335;1141;104445;-75
2021/01/14 06:09:26;;;;;;;21.47;9.80;;;;;;;-1.03;72.39;99622.80;121244;1140;104715;-75
2021/01/14 06:12:09;;;;;;;22.73;9.63;;;;;;;-0.99;72.77;99622.22;121198;1140;104333;-76
2021/01/14 06:14:38;;;;;;;24.30;9.87;;;;;;;-0.91;72.24;99620.16;121349;1141;104436;-73
2021/01/14 06:17:11;;;;;;;22.63;10.40;;;;;;;-0.83;72.57;99621.56;121480;1141;104468;-74
2021/01/14 06:19:40;;;;;;;21.15;10.35;;;;;;;-0.81;72.72;99620.00;121466;1141;104465;-74
2021/01/14 06:22:15;;;;;;;23.30;9.97;;;;;;;-0.75;72.68;99616.91;121494;1141;104435;-76
2021/01/14 06:24:57;;;;;;;24.13;9.87;;;;;;;-0.73;72.12;99616.23;121400;1140;104337;-75
2021/01/14 06:27:27;;;;;;;24.97;10.63;;;;;;;-0.71;72.18;99620.61;121206;1141;105186;-76
2021/01/14 06:30:04;;;;;;;23.17;11.57;;;;;;;-0.70;72.28;99618.13;121356;1141;104871;-75
2021/01/14 06:32:37;;;;;;;24.50;11.20;;;;;;;-0.65;72.98;99621.89;121240;1141;104369;-76
2021/01/14 06:35:08;;;;;;;24.07;11.40;;;;;;;-0.62;72.79;99619.52;121301;1141;104471;-77
2021/01/14 06:37:38;;;;;;;26.50;12.40;;;;;;;-0.57;72.27;99630.13;121430;1141;104825;-73
2021/01/14 06:40:08;;;;;;;26.57;10.67;;;;;;;-0.55;72.36;99633.69;121489;1141;104454;-74
2021/01/14 06:42:38;;;;;;;36.27;17.17;;;;;;;-0.51;72.78;99629.63;122600;1141;104383;-73
2021/01/14 06:45:17;;;;;;;48.77;22.33;;;;;;;-0.49;72.32;99628.94;121329;1141;104933;-74
2021/01/14 06:48:03;;;;;;;47.90;22.83;;;;;;;-0.39;72.17;99630.42;121273;1140;104361;-75
2021/01/14 06:50:41;;;;;;;47.93;24.10;;;;;;;-0.23;72.52;99634.91;121789;1140;104456;-79
2021/01/14 06:53:16;;;;;;;45.27;22.73;;;;;;;-0.09;72.90;99628.06;121363;1140;104476;-78
2021/01/14 06:55:48;;;;;;;50.00;23.27;;;;;;;0.03;72.55;99633.97;121320;1140;104464;-76
2021/01/14 06:58:19;;;;;;;52.33;24.80;;;;;;;0.18;72.49;99634.06;121389;1141;104375;-78
2021/01/14 07:00:50;;;;;;;49.47;24.03;;;;;;;0.28;72.33;99635.52;121292;1141;104348;-75
2021/01/14 07:03:24;;;;;;;48.23;22.07;;;;;;;0.34;72.59;99635.91;121297;1140;104387;-75
2021/01/14 07:06:07;;;;;;;46.95;23.42;;;;;;;0.35;72.86;99630.84;121242;1141;104364;-77
2021/01/14 07:08:40;;;;;;;48.20;22.90;;;;;;;0.44;72.43;99634.81;121381;1141;104391;-76
2021/01/14 07:11:15;;;;;;;48.40;22.77;;;;;;;0.49;72.42;99638.56;121432;1141;104409;-74
2021/01/14 07:13:50;;;;;;;45.93;22.90;;;;;;;0.58;72.33;99644.30;121385;1140;104435;-77
2021/01/14 07:16:21;;;;;;;37.57;18.47;;;;;;;0.63;72.58;99648.04;122562;1140;103479;-75
2021/01/14 07:18:51;;;;;;;33.10;15.03;;;;;;;0.69;72.60;99647.53;121543;1141;104336;-76
2021/01/14 07:21:30;;;;;;;36.23;17.10;;;;;;;0.76;72.33;99649.67;121525;1141;104517;-77
2021/01/14 07:24:05;;;;;;;28.67;14.17;;;;;;;0.83;72.45;99646.67;121267;1141;104439;-77
2021/01/14 07:26:39;;;;;;;29.00;13.27;;;;;;;0.85;72.35;99647.65;121397;1141;104342;-79
2021/01/14 07:29:09;;;;;;;31.45;14.90;;;;;;;0.82;72.32;99646.59;121381;1141;104388;-75
2021/01/14 07:31:47;;;;;;;34.13;16.43;;;;;;;0.84;72.46;99642.39;121400;1141;103792;-77
2021/01/14 07:34:36;;;;;;;30.57;14.83;;;;;;;0.89;72.46;99636.72;121273;1141;104422;-75
2021/01/14 07:37:07;;;;;;;31.50;15.10;;;;;;;0.91;72.34;99636.81;121531;1141;104356;-76
2021/01/14 07:39:55;;;;;;;29.77;13.58;;;;;;;0.94;72.58;99633.53;120998;1141;104423;-77
2021/01/14 07:42:27;;;;;;;30.45;13.85;;;;;;;0.94;72.65;99631.83;121116;1141;104523;-78
2021/01/14 07:44:59;;;;;;;29.30;13.87;;;;;;;0.89;72.51;99625.50;121537;1141;103714;-77
2021/01/14 07:47:32;;;;;;;29.07;13.72;;;;;;;0.88;72.40;99634.04;121012;1143;104407;-81
2021/01/14 07:50:19;;;;;;;30.50;14.03;;;;;;;0.82;72.34;99629.39;120979;1141;104432;-76
2021/01/14 07:53:15;;;;;;;29.37;13.73;;;;;;;0.79;72.43;99628.31;122525;1141;102856;-76
2021/01/14 07:55:47;;;;;;;30.70;14.87;;;;;;;0.73;72.40;99631.41;121035;1142;104356;-78
2021/01/14 07:58:23;;;;;;;26.87;13.30;;;;;;;0.70;72.41;99637.30;120969;1141;104530;-78
2021/01/14 08:01:05;;;;;;;29.73;14.67;;;;;;;0.71;72.68;99631.31;120846;1141;104600;-76
2021/01/14 08:03:36;;;;;;;24.70;11.37;;;;;;;0.78;72.25;99634.27;121258;1141;104380;-76
2021/01/14 08:06:25;;;;;;;29.70;13.20;;;;;;;0.83;72.11;99626.02;121005;1143;104658;-73
2021/01/14 08:08:59;;;;;;;29.47;14.30;;;;;;;0.97;72.11;99626.84;121069;1142;104763;-78
2021/01/14 08:11:30;;;;;;;29.80;13.77;;;;;;;1.11;72.26;99624.17;121247;1141;104623;-77
2021/01/14 08:14:14;;;;;;;33.00;15.30;;;;;;;1.19;72.28;99620.37;122853;1140;102494;-75
2021/01/14 08:16:50;;;;;;;27.97;13.27;;;;;;;1.36;72.50;99621.36;121612;1140;104372;-76
2021/01/14 08:19:34;;;;;;;29.10;13.97;;;;;;;1.48;72.05;99622.07;121412;1141;104377;-79
2021/01/14 08:22:13;;;;;;;28.97;14.23;;;;;;;1.56;72.50;99617.34;121412;1140;104400;-76
2021/01/14 08:24:51;;;;;;;28.30;13.73;;;;;;;1.49;72.16;99605.73;122111;1140;104461;-78
2021/01/14 08:27:35;;;;;;;28.37;12.97;;;;;;;1.40;72.03;99616.45;121318;1141;104437;-77
2021/01/14 08:30:13;;;;;;;29.33;14.20;;;;;;;1.34;71.88;99615.19;121025;1141;104431;-76
2021/01/14 08:32:47;;;;;;;32.23;15.60;;;;;;;1.38;72.13;99622.33;121123;1141;104538;-76
2021/01/14 08:35:28;;;;;;;29.57;13.73;;;;;;;1.56;72.35;99631.15;123277;1140;101889;-78
2021/01/14 08:38:03;;;;;;;28.97;13.83;;;;;;;1.71;72.19;99628.53;121250;1141;104652;-76
2021/01/14 08:40:34;;;;;;;32.57;16.47;;;;;;;1.82;71.82;99638.60;121179;1141;104531;-74
2021/01/14 08:43:09;;;;;;;28.80;14.37;;;;;;;1.93;72.22;99625.48;121263;1141;104604;-78
2021/01/14 08:45:51;;;;;;;27.73;12.47;;;;;;;2.11;72.20;99628.18;121252;1141;104412;-76
2021/01/14 08:48:24;;;;;;;28.23;14.23;;;;;;;2.29;72.30;99627.40;121342;1141;104515;-76
2021/01/14 08:51:06;;;;;;;28.47;14.17;;;;;;;2.40;71.47;99617.63;121153;1141;104416;-77
2021/01/14 08:53:44;;;;;;;29.37;14.30;;;;;;;2.51;71.96;99611.35;121594;1141;104358;-77
2021/01/14 08:56:18;;;;;;;32.23;14.80;;;;;;;2.65;71.97;99615.56;121045;1141;104376;-77
2021/01/14 08:59:02;;;;;;;28.43;13.57;;;;;;;2.78;72.05;99606.72;121040;1141;104403;-80
2021/01/14 09:01:37;;;;;;;32.40;14.97;;;;;;;2.90;71.16;99602.98;122711;1140;102021;-79
2021/01/14 09:04:08;;;;;;;29.33;14.53;;;;;;;3.01;71.51;99600.14;121301;1141;104367;-79
2021/01/14 09:06:39;;;;;;;29.33;13.97;;;;;;;3.15;71.62;99592.20;121398;1141;104457;-80
2021/01/14 09:09:13;;;;;;;30.83;13.50;;;;;;;3.29;71.04;99588.58;121387;1141;104430;-79
2021/01/14 09:12:08;;;;;;;;;;;;;;;3.40;70.62;99583.94;121287;1141;104365;-80
2021/01/14 09:14:40;;;;;;;27.53;11.77;;;;;;;3.50;71.43;99586.14;121045;1141;104391;-79
2021/01/14 09:17:10;;;;;;;25.90;12.27;;;;;;;3.55;70.65;99592.47;121453;1141;104487;-78
2021/01/14 09:19:54;;;;;;;23.70;11.17;;;;;;;3.62;70.82;99593.65;121757;1141;104455;-79
2021/01/14 09:22:27;;;;;;;24.27;11.30;;;;;;;3.59;70.83;99586.59;121361;1141;104479;-80
2021/01/14 09:24:57;;;;;;;19.70;9.23;;;;;;;3.50;70.57;99596.52;121510;1141;104368;-76
2021/01/14 09:27:28;;;;;;;31.30;12.27;;;;;;;3.34;70.83;99589.69;121844;1140;103041;-77
2021/01/14 09:29:58;;;;;;;25.33;11.90;;;;;;;3.34;70.46;99591.41;121411;1140;104322;-79
2021/01/14 09:32:28;;;;;;;24.30;11.23;;;;;;;3.39;70.46;99595.98;121341;1140;104487;-77
2021/01/14 09:35:16;;;;;;;27.77;11.63;;;;;;;3.44;71.21;99591.03;121369;1141;104442;-78
2021/01/14 09:37:49;;;;;;;21.80;9.80;;;;;;;3.51;70.19;99598.31;121405;1141;104362;-80
2021/01/14 09:40:25;;;;;;;22.83;10.23;;;;;;;3.46;69.61;99589.42;121329;1141;104494;-78
2021/01/14 09:42:54;;;;;;;21.53;9.50;;;;;;;3.40;70.06;99576.16;121307;1141;104364;-79
2021/01/14 09:45:23;;;;;;;23.73;9.50;;;;;;;3.39;70.03;99576.95;121279;1141;104505;-76
2021/01/14 09:47:57;;;;;;;22.07;10.10;;;;;;;3.42;70.13;99572.80;121334;1140;104367;-76
2021/01/14 09:50:27;;;;;;;21.30;9.47;;;;;;;3.43;70.59;99573.71;121395;1140;104362;-78
2021/01/14 09:53:07;;;;;;;20.93;9.37;;;;;;;3.47;69.89;99567.84;121327;1140;104454;-79
2021/01/14 09:55:37;;;;;;;19.87;8.17;;;;;;;3.54;69.33;99562.15;121481;1141;104498;-79
2021/01/14 09:58:18;;;;;;;21.50;8.97;;;;;;;3.58;69.67;99564.09;121395;1141;104573;-80
2021/01/14 10:00:51;;;;;;;20.30;8.53;;;;;;;3.65;69.98;99560.08;121478;1141;104534;-76
2021/01/14 10:03:32;;;;;;;22.50;9.77;;;;;;;3.72;69.91;99561.25;121481;1141;104429;-77
2021/01/14 10:06:06;;;;;;;24.80;10.37;;;;;;;3.77;70.09;99560.66;121513;1141;104436;-80
2021/01/14 10:08:40;;;;;;;21.63;9.70;;;;;;;3.80;69.95;99559.02;121491;1140;104789;-78
2021/01/14 10:11:10;;;;;;;21.48;9.93;;;;;;;3.74;69.11;99554.41;121678;1141;104335;-78
2021/01/14 10:13:50;;;;;;;24.50;10.40;;;;;;;3.76;69.85;99563.19;121394;1141;104850;-78
2021/01/14 10:16:22;;;;;;;20.50;9.57;;;;;;;3.78;69.62;99552.04;121478;1141;104390;-78
2021/01/14 10:18:52;;;;;;;20.57;9.90;;;;;;;3.84;69.92;99542.79;121298;1141;104337;-77
2021/01/14 10:21:27;;;;;;;21.90;9.53;;;;;;;3.89;69.84;99539.57;122829;1140;103123;-79
2021/01/14 10:23:57;;;;;;;22.80;10.03;;;;;;;3.98;69.11;99530.46;122282;1140;104342;-77
2021/01/14 10:26:30;;;;;;;19.30;8.30;;;;;;;4.05;69.42;99524.71;121340;1141;104339;-81
2021/01/14 10:29:05;;;;;;;21.00;9.67;;;;;;;4.06;69.51;99516.11;121733;1139;104451;-80
2021/01/14 10:31:46;;;;;;;19.93;8.87;;;;;;;4.12;68.79;99513.80;121275;1141;104368;-78
2021/01/14 10:34:16;;;;;;;19.93;8.53;;;;;;;4.17;68.78;99516.61;121585;1140;104334;-79
2021/01/14 10:36:50;;;;;;;23.20;9.10;;;;;;;4.12;69.00;99506.02;121478;1141;104385;-79
2021/01/14 10:39:43;;;;;;;21.27;9.30;;;;;;;4.19;68.72;99502.89;121518;1141;104367;-77
2021/01/14 10:42:32;;;;;;;25.57;9.40;;;;;;;4.22;68.69;99495.20;121122;1141;104377;-80
2021/01/14 10:45:06;;;;;;;18.90;8.53;;;;;;;4.23;68.11;99486.60;121315;1141;104540;-78
2021/01/14 10:47:45;;;;;;;19.40;8.63;;;;;;;4.24;68.57;99490.98;121371;1140;104342;-82
2021/01/14 10:50:20;;;;;;;;;;;;;;;4.25;68.21;99489.27;121206;1141;104404;-79
2021/01/14 10:53:02;;;;;;;21.40;8.63;;;;;;;4.29;68.41;99481.68;121616;1141;102582;-83
2021/01/14 10:55:34;;;;;;;20.17;8.00;;;;;;;4.35;67.85;99477.57;121213;1140;104373;-80
2021/01/14 10:58:20;;;;;;;19.33;8.30;;;;;;;4.37;68.06;99481.14;121443;1140;104458;-80
2021/01/14 11:00:52;;;;;;;16.93;8.03;;;;;;;4.41;68.26;99468.36;121324;1140;104399;-79
2021/01/14 11:03:24;;;;;;;21.87;8.33;;;;;;;4.45;67.95;99472.84;121101;1141;104415;-77
2021/01/14 11:05:55;;;;;;;21.27;8.47;;;;;;;4.47;68.27;99472.91;121115;1141;104474;-80
2021/01/14 11:08:26;;;;;;;22.70;8.53;;;;;;;4.48;67.82;99467.78;121049;1140;104476;-78
2021/01/14 11:11:07;;;;;;;21.40;8.65;;;;;;;4.43;68.06;99461.52;121097;1141;104345;-76
2021/01/14 11:13:42;;;;;;;20.60;8.70;;;;;;;4.42;68.03;99459.73;121214;1141;104831;-79
2021/01/14 11:16:12;;;;;;;16.83;7.47;;;;;;;4.41;67.67;99455.38;122893;1140;102141;-79
2021/01/14 11:18:43;;;;;;;21.63;8.73;;;;;;;4.41;68.04;99450.18;122611;1141;102093;-82
2021/01/14 11:21:16;;;;;;;21.03;8.00;;;;;;;4.42;67.89;99449.33;122797;1139;102085;-82
2021/01/14 11:23:49;;;;;;;18.23;7.70;;;;;;;4.43;67.55;99453.72;122422;1143;102260;-79
2021/01/14 11:26:19;;;;;;;21.47;7.50;;;;;;;4.42;67.74;99446.73;122824;1139;103490;-80
2021/01/14 11:29:33;;;;;;;19.77;7.23;;;;;;;4.42;67.29;99440.66;123269;1139;102225;-81
2021/01/14 11:36:10;;;;;;;18.50;6.50;;;;;;;4.38;66.73;99446.53;120638;1147;102639;-80
2021/01/14 11:38:48;;;;;;;18.27;6.67;;;;;;;4.35;67.27;99438.61;121067;1148;104448;-78
2021/01/14 11:41:19;;;;;;;14.80;6.30;;;;;;;4.28;66.30;99440.06;120767;1147;104618;-78
2021/01/14 11:43:49;;;;;;;18.27;7.07;;;;;;;4.25;67.07;99435.61;122524;1146;102291;-82